Anniston, AL

6:57 AM CST on December 06, 2016 (GMT -0600)
Anniston Metro | | Change Station

Elev 610 ft 33.59 °N, 85.86 °W | Updated 4 minutes ago

Overcast
Overcast
57 °F
Feels Like 57 °F
N
8
Wind Variable Wind from NE

Today
High -- | Low -- °F
--% Chance of Precip.
Yesterday
High -- | Low -- °F
Precip. -- in
Pressure 29.65 in
Visibility 10.0 miles
Clouds Overcast 1700 ft
Dew Point 54 °F
Humidity 89%
Rainfall 0.37 in
Snow Depth Not available.
6:34 AM 4:35 PM
Waxing Crescent, 41% visible
METAR KANB 061253Z AUTO 05007KT 10SM OVC017 14/12 A2965 RMK AO2 RAE1156 SLP041 P0000 T01390122
Pressure 29.65 in
Visibility 10.0 miles
Clouds Overcast 1700 ft
Dew Point 54 °F
Humidity 89%
Rainfall 0.37 in
Snow Depth Not available.
6:34 AM 4:35 PM
Waxing Crescent, 41% visible
METAR KANB 061253Z AUTO 05007KT 10SM OVC017 14/12 A2965 RMK AO2 RAE1156 SLP041 P0000 T01390122

10-Day Weather Forecast

Almanac

Astronomy

Dec. 06, 2016 Rise Set
Actual Time
Civil Twilight
Nautical Twilight
Astronomical Twilight
Moon
Length of Visible Light
Length of Day
Tomorrow will be .
, % of the Moon is Illuminated

Today's Extremes

State Highs State Lows

Community

WunderPhotos

Upload Photos

1,955,938 photos uploaded!

WunderBlog® & News

Nearby

Air Quality

  Air Quality AQ Index Pollutant
Not available.

Snow Depth

Station Depth Elevation

Earthquake Activity

City Distance Mag. Time & Date
Minimum magnitude displayed is 2.5.

Coastal Water Temperatures

Place Temperature

Stations

Nearby Weather Stations

Station Location Temp. Windchill Dew Point Humidity Wind Precip. Elev Updated Type
                   

Watches & Warnings

There are currently no watches in effect.